createdAt,value
2023-04-11T00:00:10.166Z,9.16
2023-04-11T00:01:15.062Z,9.19
2023-04-11T00:02:17.638Z,9.15
2023-04-11T00:03:20.389Z,9.25
2023-04-11T00:04:24.784Z,9.29
2023-04-11T00:05:28.279Z,9.38
2023-04-11T00:06:32.566Z,9.46
2023-04-11T00:07:35.323Z,9.48
2023-04-11T00:08:37.720Z,9.46
2023-04-11T00:09:39.681Z,9.43
2023-04-11T00:10:43.218Z,9.38
2023-04-11T00:11:46.023Z,9.31
2023-04-11T00:12:48.499Z,9.30
2023-04-11T00:13:50.520Z,9.19
2023-04-11T00:14:53.298Z,9.06
2023-04-11T00:15:56.041Z,9.10
2023-04-11T00:17:00.290Z,9.10
2023-04-11T00:18:02.471Z,9.13
2023-04-11T00:19:06.452Z,9.17
2023-04-11T00:20:11.304Z,9.20
2023-04-11T00:21:13.374Z,9.13
2023-04-11T00:22:17.727Z,9.08
2023-04-11T00:23:20.359Z,9.11
2023-04-11T00:24:22.568Z,9.05
2023-04-11T00:25:25.006Z,8.98
2023-04-11T00:26:27.247Z,8.95
2023-04-11T00:27:29.580Z,8.99
2023-04-11T00:28:31.910Z,8.93
2023-04-11T00:29:35.117Z,8.89
2023-04-11T00:30:38.886Z,8.93
2023-04-11T00:31:41.293Z,8.93
2023-04-11T00:32:45.412Z,8.82
2023-04-11T00:33:47.540Z,8.83
2023-04-11T00:34:49.912Z,8.78
2023-04-11T00:35:51.934Z,8.82
2023-04-11T00:36:54.575Z,8.84
2023-04-11T00:37:58.051Z,8.90
2023-04-11T00:39:03.465Z,8.95
2023-04-11T00:40:07.137Z,8.92
2023-04-11T00:41:09.427Z,8.94
2023-04-11T00:42:12.836Z,8.85
2023-04-11T00:43:15.127Z,8.83
2023-04-11T00:44:17.451Z,8.87
2023-04-11T00:45:19.828Z,8.86
2023-04-11T00:46:22.180Z,8.89
2023-04-11T00:47:25.306Z,8.91
2023-04-11T00:48:27.962Z,8.93
2023-04-11T00:49:31.407Z,8.97
2023-04-11T00:50:35.484Z,8.99
2023-04-11T00:51:37.981Z,8.97
2023-04-11T00:52:40.714Z,8.94
2023-04-11T00:53:45.121Z,8.81
2023-04-11T00:54:48.060Z,8.81
2023-04-11T00:55:50.901Z,8.87
2023-04-11T00:56:53.402Z,8.87
2023-04-11T00:57:56.117Z,8.90
2023-04-11T00:58:59.186Z,8.86
2023-04-11T01:00:03.418Z,8.88
2023-04-11T01:01:08.509Z,8.97
2023-04-11T01:02:11.396Z,9.04
2023-04-11T01:03:13.844Z,9.08
2023-04-11T01:04:16.982Z,9.10
2023-04-11T01:05:19.504Z,9.15
2023-04-11T01:06:23.807Z,9.02
2023-04-11T01:07:26.157Z,9.02
2023-04-11T01:08:28.662Z,9.02
2023-04-11T01:09:32.904Z,9.02
2023-04-11T01:10:36.217Z,8.94
2023-04-11T01:11:39.226Z,8.88
2023-04-11T01:12:43.557Z,8.82
2023-04-11T01:13:46.533Z,8.77
2023-04-11T01:14:48.951Z,8.73
2023-04-11T01:15:51.379Z,8.67
2023-04-11T01:16:55.859Z,8.66
2023-04-11T01:18:00.168Z,8.58
2023-04-11T01:19:03.757Z,8.49
2023-04-11T01:20:08.247Z,8.45
2023-04-11T01:21:11.516Z,8.47
2023-04-11T01:22:17.491Z,8.54
2023-04-11T01:23:27.050Z,8.53
2023-04-11T01:24:30.073Z,8.51
2023-04-11T01:25:32.449Z,8.54
2023-04-11T01:26:35.197Z,8.56
2023-04-11T01:27:37.885Z,8.47
2023-04-11T01:28:40.100Z,8.49
2023-04-11T01:29:43.152Z,8.51
2023-04-11T01:30:46.032Z,8.43
2023-04-11T01:31:51.967Z,8.46
2023-04-11T01:32:54.588Z,8.49
2023-04-11T01:34:01.346Z,8.54
2023-04-11T01:35:05.081Z,8.51
2023-04-11T01:36:08.750Z,8.37
2023-04-11T01:37:11.106Z,8.28
2023-04-11T01:38:13.210Z,8.23
2023-04-11T01:39:15.444Z,8.16
2023-04-11T01:40:18.924Z,8.09
2023-04-11T01:41:23.176Z,8.01
2023-04-11T01:42:27.220Z,8.05
2023-04-11T01:43:29.728Z,8.11
2023-04-11T01:44:32.972Z,8.18
2023-04-11T01:45:37.922Z,8.25
2023-04-11T01:46:40.908Z,8.29
2023-04-11T01:47:43.395Z,8.36
2023-04-11T01:48:48.926Z,8.38
2023-04-11T01:49:53.160Z,8.41
2023-04-11T01:50:56.058Z,8.43
2023-04-11T01:51:58.248Z,8.42
2023-04-11T01:53:01.484Z,8.39
2023-04-11T01:54:05.538Z,8.42
2023-04-11T01:55:08.297Z,8.40
2023-04-11T01:56:12.545Z,8.29
2023-04-11T01:57:14.800Z,8.21
2023-04-11T01:58:16.905Z,8.08
2023-04-11T01:59:18.932Z,8.05
2023-04-11T02:00:21.839Z,7.97
2023-04-11T02:01:24.380Z,7.96
2023-04-11T02:02:26.731Z,7.91
2023-04-11T02:03:28.939Z,7.90
2023-04-11T02:04:32.515Z,7.79
2023-04-11T02:05:35.078Z,7.74
2023-04-11T02:06:38.053Z,7.68
2023-04-11T02:07:40.570Z,7.71
2023-04-11T02:08:43.841Z,7.62
2023-04-11T02:09:47.077Z,7.52
2023-04-11T02:10:49.815Z,7.47
2023-04-11T02:11:52.073Z,7.40
2023-04-11T02:12:54.230Z,7.39
2023-04-11T02:13:56.252Z,7.44
2023-04-11T02:14:58.389Z,7.53
2023-04-11T02:16:11.256Z,7.55
2023-04-11T02:17:13.896Z,7.60
2023-04-11T02:18:16.136Z,7.59
2023-04-11T02:19:20.500Z,7.59
2023-04-11T02:20:23.438Z,7.62
2023-04-11T02:21:26.257Z,7.63
2023-04-11T02:22:28.189Z,7.70
2023-04-11T02:23:30.147Z,7.72
2023-04-11T02:24:32.394Z,7.65
2023-04-11T02:25:34.812Z,7.47
2023-04-11T02:26:37.427Z,7.49
2023-04-11T02:27:40.006Z,7.57
2023-04-11T02:28:42.225Z,7.55
2023-04-11T02:29:44.443Z,7.51
2023-04-11T02:30:46.652Z,7.47
2023-04-11T02:31:49.345Z,7.39
2023-04-11T02:32:52.939Z,7.38
2023-04-11T02:33:55.542Z,7.43
2023-04-11T02:34:57.572Z,7.33
2023-04-11T02:36:00.180Z,7.36
2023-04-11T02:37:03.436Z,7.36
2023-04-11T02:38:05.634Z,7.34
2023-04-11T02:39:07.641Z,7.29
2023-04-11T02:40:10.777Z,7.27
2023-04-11T02:41:13.447Z,7.23
2023-04-11T02:42:15.312Z,7.17
2023-04-11T02:43:17.289Z,7.09
2023-04-11T02:44:19.872Z,7.14
2023-04-11T02:45:22.714Z,7.19
2023-04-11T02:46:25.331Z,7.21
2023-04-11T02:47:27.709Z,7.22
2023-04-11T02:48:32.695Z,7.18
2023-04-11T02:49:34.760Z,7.13
2023-04-11T02:50:41.366Z,7.15
2023-04-11T02:51:43.937Z,7.17
2023-04-11T02:52:48.692Z,7.15
2023-04-11T02:53:53.816Z,7.15
2023-04-11T02:54:56.338Z,7.12
2023-04-11T02:55:58.320Z,7.08
2023-04-11T02:57:01.600Z,7.02
2023-04-11T02:58:03.686Z,7.02
2023-04-11T02:59:07.126Z,7.06
2023-04-11T03:00:11.807Z,6.98
2023-04-11T03:01:20.885Z,6.97
2023-04-11T03:02:23.379Z,7.03
2023-04-11T03:03:25.669Z,7.04
2023-04-11T03:04:28.886Z,7.08
2023-04-11T03:05:32.975Z,7.18
2023-04-11T03:06:35.565Z,7.17
2023-04-11T03:07:40.363Z,7.16
2023-04-11T03:08:43.907Z,7.24
2023-04-11T03:09:46.400Z,7.07
2023-04-11T03:10:48.394Z,7.07
2023-04-11T03:11:52.837Z,7.08
2023-04-11T03:12:55.284Z,7.08
2023-04-11T03:13:57.804Z,7.11
2023-04-11T03:14:59.938Z,7.08
2023-04-11T03:16:03.557Z,7.01
2023-04-11T03:17:06.922Z,7.06
2023-04-11T03:18:09.057Z,7.01
2023-04-11T03:19:13.366Z,7.00
2023-04-11T03:20:17.919Z,7.02
2023-04-11T03:21:20.596Z,7.01
2023-04-11T03:22:24.288Z,7.01
2023-04-11T03:23:26.614Z,7.08
2023-04-11T03:24:29.458Z,7.10
2023-04-11T03:25:31.780Z,7.00
2023-04-11T03:26:35.945Z,6.95
2023-04-11T03:27:40.859Z,6.95
2023-04-11T03:28:43.112Z,7.00
2023-04-11T03:29:45.315Z,6.94
2023-04-11T03:30:49.967Z,6.99
2023-04-11T03:31:54.040Z,7.06
2023-04-11T03:32:58.931Z,7.06
2023-04-11T03:34:02.085Z,7.08
2023-04-11T03:35:05.285Z,7.05
2023-04-11T03:36:08.949Z,7.03
2023-04-11T03:37:11.427Z,7.00
2023-04-11T03:38:14.366Z,7.05
2023-04-11T03:39:16.848Z,7.08
2023-04-11T03:40:19.514Z,7.07
2023-04-11T03:41:26.262Z,7.07
2023-04-11T03:42:29.063Z,7.08
2023-04-11T03:43:33.537Z,7.16
2023-04-11T03:44:36.033Z,7.17
2023-04-11T03:45:38.033Z,7.17
2023-04-11T03:46:42.199Z,7.15
2023-04-11T03:47:45.656Z,7.16
2023-04-11T03:48:49.418Z,7.22
2023-04-11T03:49:52.890Z,7.17
2023-04-11T03:50:55.854Z,7.12
2023-04-11T03:52:00.258Z,7.12
2023-04-11T03:53:03.633Z,7.10
2023-04-11T03:54:05.942Z,7.06
2023-04-11T03:55:10.542Z,7.12
2023-04-11T03:56:14.392Z,7.12
2023-04-11T03:57:16.487Z,7.24
2023-04-11T03:58:20.927Z,7.26
2023-04-11T03:59:23.557Z,7.34
2023-04-11T04:00:30.640Z,7.40
2023-04-11T04:01:37.834Z,7.44
2023-04-11T04:02:40.412Z,7.46
2023-04-11T04:03:43.586Z,7.48
2023-04-11T04:04:51.842Z,7.47
2023-04-11T04:05:56.245Z,7.43
2023-04-11T04:06:58.901Z,7.47
2023-04-11T04:08:04.225Z,7.51
2023-04-11T04:09:09.284Z,7.50
2023-04-11T04:10:19.609Z,7.49
2023-04-11T04:11:23.664Z,7.33
2023-04-11T04:12:27.838Z,7.34
2023-04-11T04:13:32.121Z,7.21
2023-04-11T04:14:38.864Z,7.18
2023-04-11T04:15:41.902Z,7.19
2023-04-11T04:16:44.821Z,7.25
2023-04-11T04:17:49.141Z,7.14
2023-04-11T04:18:53.386Z,7.09
2023-04-11T04:19:56.585Z,7.14
2023-04-11T04:20:59.357Z,7.12
2023-04-11T04:22:03.386Z,7.11
2023-04-11T04:23:07.340Z,7.13
2023-04-11T04:24:11.771Z,7.16
2023-04-11T04:25:27.565Z,7.14
2023-04-11T04:26:31.990Z,7.13
2023-04-11T04:27:36.766Z,7.12
2023-04-11T04:28:40.333Z,7.15
2023-04-11T04:29:47.316Z,7.18
2023-04-11T04:30:54.352Z,7.19
2023-04-11T04:31:59.391Z,7.23
2023-04-11T04:33:04.059Z,7.29
2023-04-11T04:34:10.608Z,7.29
2023-04-11T04:35:16.003Z,7.27
2023-04-11T04:36:18.519Z,7.33
2023-04-11T04:37:24.373Z,7.34
2023-04-11T04:38:29.149Z,7.36
2023-04-11T04:39:33.469Z,7.34
2023-04-11T04:40:38.424Z,7.27
2023-04-11T04:41:41.157Z,7.26
2023-04-11T04:42:44.212Z,7.25
2023-04-11T04:43:48.269Z,7.27
2023-04-11T04:45:05.532Z,7.27
2023-04-11T04:46:10.319Z,7.22
2023-04-11T04:47:23.530Z,7.29
2023-04-11T04:48:26.096Z,7.28
2023-04-11T04:49:28.955Z,7.30
2023-04-11T04:50:31.303Z,7.32
2023-04-11T04:51:33.426Z,7.30
2023-04-11T04:52:36.197Z,7.32
2023-04-11T04:53:39.102Z,7.32
2023-04-11T04:54:43.113Z,7.37
2023-04-11T04:55:45.816Z,7.36
2023-04-11T04:56:48.685Z,7.38
2023-04-11T04:57:51.425Z,7.39
2023-04-11T04:58:54.282Z,7.39
2023-04-11T04:59:57.583Z,7.43
2023-04-11T05:01:02.328Z,7.46
2023-04-11T05:02:05.659Z,7.50
2023-04-11T05:03:08.365Z,7.58
2023-04-11T05:04:11.404Z,7.55
2023-04-11T05:05:18.789Z,7.56
2023-04-11T05:06:22.065Z,7.57
2023-04-11T05:07:25.935Z,7.63
2023-04-11T05:08:28.264Z,7.68
2023-04-11T05:09:32.413Z,7.72
2023-04-11T05:10:39.371Z,7.76
2023-04-11T05:11:41.798Z,7.80
2023-04-11T05:12:44.132Z,7.81
2023-04-11T05:13:47.348Z,7.81
2023-04-11T05:14:52.489Z,7.84
2023-04-11T05:15:54.760Z,7.86
2023-04-11T05:16:59.093Z,7.88
2023-04-11T05:19:14.998Z,8.06
2023-04-11T05:20:19.419Z,7.96
2023-04-11T05:21:22.649Z,8.01
2023-04-11T05:22:26.670Z,8.02
2023-04-11T05:23:30.647Z,8.04
2023-04-11T05:24:34.705Z,8.08
2023-04-11T05:25:37.157Z,8.11
2023-04-11T05:26:40.294Z,8.12
2023-04-11T05:27:42.800Z,8.17
2023-04-11T05:28:45.159Z,8.21
2023-04-11T05:29:49.051Z,8.26
2023-04-11T05:30:52.099Z,8.29
2023-04-11T05:31:55.201Z,8.35
2023-04-11T05:32:57.971Z,8.40
2023-04-11T05:34:00.891Z,8.45
2023-04-11T05:35:03.652Z,8.45
2023-04-11T05:36:14.824Z,8.43
2023-04-11T05:37:17.055Z,8.46
2023-04-11T05:38:20.576Z,8.55
2023-04-11T05:39:22.876Z,8.61
2023-04-11T05:40:25.617Z,8.62
2023-04-11T05:41:28.198Z,8.69
2023-04-11T05:42:30.793Z,8.76
2023-04-11T05:43:35.791Z,8.79
2023-04-11T05:44:39.549Z,8.84
2023-04-11T05:45:44.382Z,8.88
2023-04-11T05:46:47.224Z,8.90
2023-04-11T05:47:50.062Z,8.92
2023-04-11T05:48:53.265Z,8.93
2023-04-11T05:49:55.361Z,8.98
2023-04-11T05:50:59.749Z,9.04
2023-04-11T05:52:02.082Z,9.10
2023-04-11T05:53:04.905Z,9.15
2023-04-11T05:54:07.188Z,9.18
2023-04-11T05:55:10.431Z,9.22
2023-04-11T05:56:13.113Z,9.27
2023-04-11T05:57:16.964Z,9.32
2023-04-11T05:58:19.475Z,9.39
2023-04-11T05:59:26.998Z,9.36
2023-04-11T06:00:31.438Z,9.39
2023-04-11T06:01:34.389Z,9.45
2023-04-11T06:02:36.756Z,9.46
2023-04-11T06:03:39.285Z,9.48
2023-04-11T06:04:41.832Z,9.48
2023-04-11T06:05:44.193Z,9.54
2023-04-11T06:06:48.232Z,9.56
2023-04-11T06:07:51.279Z,9.58
2023-04-11T06:08:54.751Z,9.56
2023-04-11T06:09:58.184Z,9.64
2023-04-11T06:11:00.796Z,9.68
2023-04-11T06:12:03.436Z,9.71
2023-04-11T06:13:06.825Z,9.72
2023-04-11T06:14:09.202Z,9.77
2023-04-11T06:15:13.741Z,9.84
2023-04-11T06:16:16.754Z,9.89
2023-04-11T06:17:19.142Z,9.91
2023-04-11T06:18:21.493Z,9.95
2023-04-11T06:19:23.763Z,9.98
2023-04-11T06:20:26.579Z,10.01
2023-04-11T06:21:31.355Z,10.04
2023-04-11T06:22:33.823Z,10.05
2023-04-11T06:23:35.745Z,10.10
2023-04-11T06:24:39.384Z,10.13
2023-04-11T06:25:41.659Z,10.16
2023-04-11T06:26:44.577Z,10.20
2023-04-11T06:27:48.185Z,10.22
2023-04-11T06:28:50.822Z,10.29
2023-04-11T06:29:53.014Z,10.34
2023-04-11T06:30:55.166Z,10.37
2023-04-11T06:31:59.729Z,10.41
2023-04-11T06:33:01.905Z,10.45
2023-04-11T06:34:04.114Z,10.44
2023-04-11T06:35:07.057Z,10.47
2023-04-11T06:36:11.058Z,10.52
2023-04-11T06:37:15.405Z,10.56
2023-04-11T06:38:17.507Z,10.56
2023-04-11T06:39:21.398Z,10.59
2023-04-11T06:40:23.939Z,10.63
2023-04-11T06:41:26.068Z,10.65
2023-04-11T06:42:28.476Z,10.71
2023-04-11T06:43:31.536Z,10.75
2023-04-11T06:44:34.705Z,10.77
2023-04-11T06:45:36.872Z,10.94
2023-04-11T06:46:39.014Z,11.06
2023-04-11T06:47:41.194Z,11.07
2023-04-11T06:48:43.467Z,11.11
2023-04-11T06:49:45.461Z,11.24
2023-04-11T06:50:49.317Z,11.32
2023-04-11T06:51:51.774Z,11.39
2023-04-11T06:52:53.774Z,11.42
2023-04-11T06:53:56.430Z,11.49
2023-04-11T06:54:59.223Z,11.59
2023-04-11T06:56:03.725Z,11.56
2023-04-11T06:57:08.313Z,11.59
2023-04-11T06:58:10.466Z,11.59
2023-04-11T06:59:13.481Z,11.59
2023-04-11T07:00:16.438Z,11.61
2023-04-11T07:01:20.027Z,11.72
2023-04-11T07:02:24.397Z,11.73
2023-04-11T07:03:26.948Z,11.83
2023-04-11T07:04:29.320Z,11.90
2023-04-11T07:05:33.708Z,11.94
2023-04-11T07:06:35.997Z,11.92
2023-04-11T07:07:39.176Z,11.94
2023-04-11T07:09:53.067Z,12.10
2023-04-11T07:10:55.052Z,12.04
2023-04-11T07:11:57.042Z,12.10
2023-04-11T07:13:02.440Z,12.09
2023-04-11T07:14:05.437Z,12.14
2023-04-11T07:15:10.455Z,12.17
2023-04-11T07:16:13.054Z,12.14
2023-04-11T07:17:15.790Z,12.15
2023-04-11T07:18:18.489Z,12.17
2023-04-11T07:19:20.598Z,12.20
2023-04-11T07:20:23.153Z,12.14
2023-04-11T07:21:29.095Z,12.24
2023-04-11T07:22:31.214Z,12.21
2023-04-11T07:23:33.052Z,12.29
2023-04-11T07:24:34.928Z,12.37
2023-04-11T07:25:39.044Z,12.30
2023-04-11T07:26:41.812Z,12.30
2023-04-11T07:27:45.685Z,12.30
2023-04-11T07:28:47.814Z,12.33
2023-04-11T07:29:50.515Z,12.39
2023-04-11T07:30:52.897Z,12.43
2023-04-11T07:31:55.446Z,12.43
2023-04-11T07:32:58.184Z,12.45
2023-04-11T07:34:00.181Z,12.53
2023-04-11T07:35:03.099Z,12.57
2023-04-11T07:36:07.560Z,12.61
2023-04-11T07:37:10.564Z,12.70
2023-04-11T07:38:13.941Z,12.76
2023-04-11T07:39:16.403Z,12.80
2023-04-11T07:40:18.650Z,12.89
2023-04-11T07:41:20.793Z,12.90
2023-04-11T07:42:22.818Z,12.93
2023-04-11T07:43:29.710Z,12.91
2023-04-11T07:44:32.254Z,12.94
2023-04-11T07:45:35.852Z,12.94
2023-04-11T07:46:38.674Z,13.01
2023-04-11T07:47:40.757Z,13.08
2023-04-11T07:48:43.050Z,13.13
2023-04-11T07:49:45.149Z,13.17
2023-04-11T07:50:48.272Z,13.22
2023-04-11T07:51:50.895Z,13.22
2023-04-11T07:52:53.114Z,13.31
2023-04-11T07:53:55.501Z,13.32
2023-04-11T07:54:58.943Z,13.35
2023-04-11T07:56:02.073Z,13.41
2023-04-11T07:57:04.791Z,13.35
2023-04-11T07:58:07.491Z,13.37
2023-04-11T07:59:11.487Z,13.38
2023-04-11T08:00:20.582Z,13.43
2023-04-11T08:01:24.432Z,13.43
2023-04-11T08:02:26.859Z,13.39
2023-04-11T08:03:29.580Z,13.43
2023-04-11T08:04:34.704Z,13.52
2023-04-11T08:05:37.158Z,13.56
2023-04-11T08:06:39.662Z,13.57
2023-04-11T08:07:41.894Z,13.62
2023-04-11T08:08:45.523Z,13.61
2023-04-11T08:09:47.742Z,13.62
2023-04-11T08:10:51.999Z,13.61
2023-04-11T08:11:56.143Z,13.57
2023-04-11T08:12:58.550Z,13.57
2023-04-11T08:14:00.681Z,13.53
2023-04-11T08:15:04.335Z,13.61
2023-04-11T08:16:09.694Z,13.54
2023-04-11T08:17:25.096Z,13.44
2023-04-11T08:18:20.178Z,13.39
2023-04-11T08:19:22.503Z,13.38
2023-04-11T08:20:25.866Z,13.35
2023-04-11T08:21:28.003Z,13.29
2023-04-11T08:22:32.957Z,13.33
2023-04-11T08:23:36.623Z,13.34
2023-04-11T08:24:38.770Z,13.32
2023-04-11T08:25:42.036Z,13.31
2023-04-11T08:26:45.130Z,13.24
2023-04-11T08:27:47.661Z,13.34
2023-04-11T08:28:49.790Z,13.31
2023-04-11T08:29:51.705Z,13.35
2023-04-11T08:30:55.825Z,13.42
2023-04-11T08:31:57.893Z,13.45
2023-04-11T08:33:00.230Z,13.46
2023-04-11T08:34:05.367Z,13.47
2023-04-11T08:35:08.055Z,13.56
2023-04-11T08:36:11.684Z,13.49
2023-04-11T08:37:13.810Z,13.54
2023-04-11T08:38:16.508Z,13.56
2023-04-11T08:39:18.794Z,13.56
2023-04-11T08:40:21.630Z,13.64
2023-04-11T08:41:23.539Z,13.72
2023-04-11T08:42:30.182Z,13.66
2023-04-11T08:43:38.311Z,13.71
2023-04-11T08:44:40.469Z,13.79
2023-04-11T08:58:35.953Z,14.69
2023-04-11T08:59:50.691Z,14.68
2023-04-11T09:01:02.737Z,14.77
2023-04-11T09:02:10.002Z,14.81
2023-04-11T09:03:15.047Z,14.78
2023-04-11T09:04:17.340Z,14.80
2023-04-11T09:05:28.391Z,14.80
2023-04-11T09:06:31.862Z,14.92
2023-04-11T09:07:40.935Z,14.87
2023-04-11T09:08:43.205Z,14.92
2023-04-11T09:09:45.708Z,14.96
2023-04-11T09:10:48.680Z,15.03
2023-04-11T09:11:53.000Z,15.03
2023-04-11T09:12:56.557Z,15.03
2023-04-11T09:14:08.865Z,15.10
2023-04-11T09:15:19.310Z,15.10
2023-04-11T09:16:21.622Z,15.20
2023-04-11T09:17:24.365Z,15.22
2023-04-11T09:18:35.445Z,15.34
2023-04-11T09:19:38.307Z,15.45
2023-04-11T09:20:41.257Z,15.30
2023-04-11T09:21:51.032Z,15.32
2023-04-11T09:22:54.327Z,15.28
2023-04-11T09:24:16.730Z,15.36
2023-04-11T09:25:20.948Z,15.34
2023-04-11T09:26:30.059Z,15.41
2023-04-11T09:27:32.142Z,15.48
2023-04-11T09:28:48.018Z,15.44
2023-04-11T09:29:50.366Z,15.45
2023-04-11T09:30:57.214Z,15.62
2023-04-11T09:31:59.651Z,15.52
2023-04-11T09:33:23.841Z,15.57
2023-04-11T09:34:27.814Z,15.54
2023-04-11T09:35:30.107Z,15.63
2023-04-11T09:36:32.393Z,15.68
2023-04-11T09:37:47.301Z,15.70
2023-04-11T09:38:50.805Z,15.60
2023-04-11T09:39:59.423Z,15.67
2023-04-11T09:41:03.585Z,15.74
2023-04-11T09:42:25.782Z,15.73
2023-04-11T09:43:31.293Z,15.79
2023-04-11T09:44:38.522Z,15.80
2023-04-11T09:45:51.674Z,15.76
2023-04-11T09:46:59.382Z,15.77
2023-04-11T09:48:01.765Z,15.74
2023-04-11T09:49:04.610Z,15.71
2023-04-11T09:50:08.395Z,15.77
2023-04-11T09:51:11.501Z,15.89
2023-04-11T09:52:15.928Z,15.99
2023-04-11T09:53:18.853Z,16.16
2023-04-11T09:54:21.926Z,16.35
2023-04-11T09:55:25.423Z,16.41
2023-04-11T09:56:31.430Z,16.47
2023-04-11T09:57:34.440Z,16.39
2023-04-11T09:58:38.934Z,16.41
2023-04-11T09:59:42.412Z,16.59
2023-04-11T10:00:47.896Z,16.84
2023-04-11T10:01:51.304Z,16.92
2023-04-11T10:02:54.450Z,17.03
2023-04-11T10:03:58.333Z,17.15
2023-04-11T10:05:03.331Z,17.19
2023-04-11T10:06:09.706Z,17.18
2023-04-11T10:07:16.337Z,17.15
2023-04-11T10:08:32.200Z,17.01
2023-04-11T10:09:42.975Z,16.91
2023-04-11T10:10:46.036Z,16.83
2023-04-11T10:11:48.648Z,16.37
2023-04-11T10:12:51.200Z,16.41
2023-04-11T10:13:53.521Z,16.46
2023-04-11T10:14:56.442Z,16.52
2023-04-11T10:16:10.860Z,16.52
2023-04-11T10:17:22.137Z,16.51
2023-04-11T10:18:22.861Z,16.54
2023-04-11T10:19:27.987Z,16.43
2023-04-11T10:20:37.356Z,16.42
2023-04-11T10:21:41.846Z,16.42
2023-04-11T10:22:53.641Z,16.44
2023-04-11T10:24:20.846Z,16.30
2023-04-11T10:25:24.286Z,16.50
2023-04-11T10:26:47.692Z,16.44
2023-04-11T10:28:00.936Z,16.50
2023-04-11T10:29:08.384Z,16.68
2023-04-11T10:30:12.455Z,16.77
2023-04-11T10:31:16.906Z,16.67
2023-04-11T10:32:22.180Z,16.74
2023-04-11T10:33:26.512Z,16.74
2023-04-11T10:34:28.945Z,16.86
2023-04-11T10:35:31.617Z,16.94
2023-04-11T10:38:06.896Z,17.05
2023-04-11T10:39:09.317Z,16.81
2023-04-11T10:40:12.919Z,16.81
2023-04-11T10:41:28.018Z,16.81
2023-04-11T10:42:45.079Z,16.79
2023-04-11T10:43:47.884Z,16.65
2023-04-11T10:45:10.734Z,16.55
2023-04-11T10:46:24.586Z,16.47
2023-04-11T10:47:28.354Z,16.62
2023-04-11T10:48:30.927Z,16.69
2023-04-11T10:49:38.610Z,16.84
2023-04-11T10:50:43.891Z,16.98
2023-04-11T10:51:46.538Z,16.92
2023-04-11T10:52:49.141Z,16.89
2023-04-11T10:53:52.500Z,16.78
2023-04-11T10:54:55.433Z,16.89
2023-04-11T10:55:58.392Z,16.94
2023-04-11T10:57:01.597Z,17.05
2023-04-11T10:58:07.113Z,17.18
2023-04-11T10:59:34.589Z,17.26
2023-04-11T11:00:53.583Z,17.25
2023-04-11T11:01:57.035Z,17.19
2023-04-11T11:03:01.146Z,17.32
2023-04-11T11:04:04.436Z,17.35
2023-04-11T11:05:18.589Z,17.39
2023-04-11T11:06:22.179Z,17.37
2023-04-11T11:07:24.743Z,17.16
2023-04-11T11:08:44.241Z,17.16
2023-04-11T11:10:13.301Z,17.07
2023-04-11T11:11:16.808Z,16.99
2023-04-11T11:12:22.156Z,17.02
2023-04-11T11:13:47.262Z,17.05
2023-04-11T11:14:54.758Z,17.10
2023-04-11T11:15:58.008Z,17.00
2023-04-11T11:17:00.699Z,17.01
2023-04-11T11:18:07.974Z,16.89
2023-04-11T11:19:13.490Z,16.84
2023-04-11T11:20:20.156Z,16.64
2023-04-11T11:21:28.096Z,16.47
2023-04-11T11:22:31.514Z,16.52
2023-04-11T11:23:38.909Z,16.32
2023-04-11T11:24:41.339Z,16.18
2023-04-11T11:25:47.143Z,16.18
2023-04-11T11:26:49.930Z,16.21
2023-04-11T11:28:00.870Z,16.15
2023-04-11T11:29:05.044Z,16.11
2023-04-11T11:30:17.952Z,16.18
2023-04-11T11:31:22.109Z,16.24
2023-04-11T11:32:31.640Z,16.31
2023-04-11T11:33:37.568Z,16.34
2023-04-11T11:34:40.976Z,16.34
2023-04-11T11:35:47.063Z,16.54
2023-04-11T11:36:51.057Z,16.73
2023-04-11T11:37:54.426Z,16.87
2023-04-11T11:38:58.935Z,16.70
2023-04-11T11:40:03.861Z,16.82
2023-04-11T11:41:06.710Z,16.72
2023-04-11T11:42:09.096Z,16.79
2023-04-11T11:43:11.388Z,16.77
2023-04-11T11:44:24.899Z,16.97
2023-04-11T11:45:27.981Z,17.09
2023-04-11T11:46:33.313Z,17.33
2023-04-11T11:47:43.248Z,17.45
2023-04-11T11:49:00.318Z,17.69
2023-04-11T11:50:03.273Z,17.87
2023-04-11T11:51:06.560Z,18.06
2023-04-11T11:52:10.228Z,18.17
2023-04-11T11:53:15.141Z,18.01
2023-04-11T11:54:17.317Z,18.10
2023-04-11T11:55:24.289Z,18.14
2023-04-11T11:56:28.451Z,18.02
2023-04-11T11:57:31.858Z,17.61
2023-04-11T11:58:37.703Z,17.69
2023-04-11T11:59:40.841Z,17.88
2023-04-11T12:00:45.402Z,18.10
2023-04-11T12:01:48.017Z,18.31
2023-04-11T12:02:55.823Z,18.17
2023-04-11T12:03:58.825Z,18.34
2023-04-11T12:05:07.501Z,18.41
2023-04-11T12:06:10.879Z,18.47
2023-04-11T12:07:13.261Z,18.44
2023-04-11T12:08:15.922Z,18.39
2023-04-11T12:09:18.198Z,18.41
2023-04-11T12:10:21.168Z,18.59
2023-04-11T12:11:24.651Z,18.75
2023-04-11T12:12:42.090Z,18.93
2023-04-11T12:13:46.074Z,18.91
2023-04-11T12:14:53.382Z,18.93
2023-04-11T12:15:57.548Z,18.98
2023-04-11T12:17:00.207Z,19.01
2023-04-11T12:18:06.375Z,19.08
2023-04-11T12:19:08.821Z,19.19
2023-04-11T12:20:11.801Z,19.29
2023-04-11T12:21:14.360Z,19.36
2023-04-11T12:22:18.560Z,19.15
2023-04-11T12:23:22.024Z,19.15
2023-04-11T12:24:24.359Z,18.88
2023-04-11T12:25:28.198Z,18.85
2023-04-11T12:26:30.712Z,18.43
2023-04-11T12:27:34.763Z,18.60
2023-04-11T12:28:37.016Z,18.83
2023-04-11T12:29:39.707Z,19.06
2023-04-11T12:30:41.976Z,19.13
2023-04-11T12:31:45.972Z,19.09
2023-04-11T12:32:48.562Z,19.07
2023-04-11T12:33:50.775Z,19.06
2023-04-11T12:34:53.829Z,19.01
2023-04-11T12:35:56.511Z,19.08
2023-04-11T12:37:01.610Z,19.13
2023-04-11T12:38:03.783Z,18.98
2023-04-11T12:39:07.121Z,18.77
2023-04-11T12:40:14.756Z,18.66
2023-04-11T12:42:26.645Z,18.83
2023-04-11T12:43:27.818Z,18.81
2023-04-11T12:44:30.222Z,18.86
2023-04-11T12:45:32.682Z,18.91
2023-04-11T12:46:36.269Z,18.90
2023-04-11T12:47:39.104Z,18.76
2023-04-11T12:48:41.487Z,18.92
2023-04-11T12:49:44.545Z,19.10
2023-04-11T12:50:48.696Z,19.15
2023-04-11T12:51:51.883Z,19.05
2023-04-11T12:52:55.690Z,19.01
2023-04-11T12:53:59.867Z,18.77
2023-04-11T12:55:04.637Z,18.84
2023-04-11T12:56:08.300Z,19.11
2023-04-11T12:57:13.861Z,19.39
2023-04-11T12:58:16.950Z,19.66
2023-04-11T12:59:20.312Z,19.88
2023-04-11T13:00:22.861Z,19.57
2023-04-11T13:01:25.864Z,19.39
2023-04-11T13:02:31.234Z,19.59
2023-04-11T13:03:34.148Z,19.56
2023-04-11T13:05:50.649Z,19.89
2023-04-11T13:06:53.129Z,19.84
2023-04-11T13:07:55.801Z,19.85
2023-04-11T13:08:58.879Z,19.68
2023-04-11T13:10:03.587Z,19.59
2023-04-11T13:11:06.633Z,19.60
2023-04-11T13:12:09.054Z,19.41
2023-04-11T13:14:16.405Z,19.22
2023-04-11T13:15:18.779Z,19.12
2023-04-11T13:16:21.303Z,19.23
2023-04-11T13:17:23.673Z,19.23
2023-04-11T13:18:26.329Z,19.39
2023-04-11T13:19:30.165Z,19.56
2023-04-11T13:20:33.897Z,19.66
2023-04-11T13:21:36.826Z,19.55
2023-04-11T13:22:44.641Z,19.35
2023-04-11T13:23:55.553Z,19.40
2023-04-11T13:24:58.588Z,19.02
2023-04-11T13:26:01.815Z,19.25
2023-04-11T13:27:03.999Z,19.04
2023-04-11T13:28:07.205Z,19.10
2023-04-11T13:29:10.200Z,19.15
2023-04-11T13:30:13.481Z,19.24
2023-04-11T13:31:16.605Z,19.36
2023-04-11T13:32:19.097Z,19.53
2023-04-11T13:33:22.246Z,19.66
2023-04-11T13:34:24.469Z,19.70
2023-04-11T13:35:27.346Z,19.84
2023-04-11T13:36:31.727Z,19.90
2023-04-11T13:37:35.242Z,19.86
2023-04-11T13:38:38.864Z,19.41
2023-04-11T13:39:41.751Z,19.17
2023-04-11T13:40:44.122Z,18.99
2023-04-11T13:41:46.079Z,18.76
2023-04-11T13:42:49.615Z,18.67
2023-04-11T13:43:52.672Z,18.52
2023-04-11T13:44:55.440Z,18.52
2023-04-11T13:45:57.771Z,18.44
2023-04-11T13:47:02.211Z,18.32
2023-04-11T13:48:05.380Z,18.07
2023-04-11T13:49:08.950Z,18.14
2023-04-11T13:50:13.821Z,18.16
2023-04-11T13:51:16.506Z,18.30
2023-04-11T13:52:18.694Z,18.38
2023-04-11T13:53:29.958Z,18.47
2023-04-11T13:54:40.046Z,18.28
2023-04-11T13:55:48.092Z,17.98
2023-04-11T13:56:51.310Z,18.13
2023-04-11T13:57:57.278Z,18.22
2023-04-11T13:58:59.940Z,18.22
2023-04-11T14:00:04.096Z,18.19
2023-04-11T14:01:07.703Z,18.04
2023-04-11T14:02:10.557Z,17.98
2023-04-11T14:03:14.917Z,17.82
2023-04-11T14:04:17.412Z,17.69
2023-04-11T14:05:20.119Z,17.80
2023-04-11T14:06:23.783Z,17.98
2023-04-11T14:07:26.205Z,18.09
2023-04-11T14:09:40.829Z,17.96
2023-04-11T14:10:44.034Z,17.86
2023-04-11T14:11:47.062Z,17.89
2023-04-11T14:12:49.470Z,17.68
2023-04-11T14:13:55.403Z,17.62
2023-04-11T14:14:59.169Z,17.71
2023-04-11T14:16:08.578Z,17.69
2023-04-11T14:17:06.098Z,17.73
2023-04-11T14:18:08.420Z,17.80
2023-04-11T14:19:10.845Z,17.73
2023-04-11T14:20:17.545Z,17.88